sensor_id;sensor_type;location;lat;lon;timestamp;P1;durP1;ratioP1;P2;durP2;ratioP2
4867;SDS011;2448;48.086;10.862;2023-03-01T00:01:27;7.30;;;4.90;;
4867;SDS011;2448;48.086;10.862;2023-03-01T00:03:53;9.60;;;5.17;;
4867;SDS011;2448;48.086;10.862;2023-03-01T00:06:19;9.13;;;4.30;;
4867;SDS011;2448;48.086;10.862;2023-03-01T00:08:45;6.83;;;4.87;;
4867;SDS011;2448;48.086;10.862;2023-03-01T00:11:15;4.60;;;4.20;;
4867;SDS011;2448;48.086;10.862;2023-03-01T00:13:42;6.60;;;4.30;;
4867;SDS011;2448;48.086;10.862;2023-03-01T00:16:09;4.83;;;4.33;;
4867;SDS011;2448;48.086;10.862;2023-03-01T00:18:34;7.03;;;5.50;;
4867;SDS011;2448;48.086;10.862;2023-03-01T00:20:59;5.97;;;4.57;;
4867;SDS011;2448;48.086;10.862;2023-03-01T00:23:25;4.37;;;3.97;;
4867;SDS011;2448;48.086;10.862;2023-03-01T00:25:51;5.13;;;4.33;;
4867;SDS011;2448;48.086;10.862;2023-03-01T00:28:17;5.73;;;3.57;;
4867;SDS011;2448;48.086;10.862;2023-03-01T00:30:43;10.73;;;6.43;;
4867;SDS011;2448;48.086;10.862;2023-03-01T00:33:08;7.00;;;4.90;;
4867;SDS011;2448;48.086;10.862;2023-03-01T00:35:33;4.07;;;3.70;;
4867;SDS011;2448;48.086;10.862;2023-03-01T00:37:59;6.07;;;5.07;;
4867;SDS011;2448;48.086;10.862;2023-03-01T00:40:25;5.40;;;4.27;;
4867;SDS011;2448;48.086;10.862;2023-03-01T00:42:51;6.17;;;4.63;;
4867;SDS011;2448;48.086;10.862;2023-03-01T00:45:16;7.70;;;5.90;;
4867;SDS011;2448;48.086;10.862;2023-03-01T00:47:42;6.87;;;4.70;;
4867;SDS011;2448;48.086;10.862;2023-03-01T00:50:08;5.57;;;4.47;;
4867;SDS011;2448;48.086;10.862;2023-03-01T00:52:33;6.40;;;3.77;;
4867;SDS011;2448;48.086;10.862;2023-03-01T00:54:59;7.63;;;4.10;;
4867;SDS011;2448;48.086;10.862;2023-03-01T00:57:24;15.40;;;5.73;;
4867;SDS011;2448;48.086;10.862;2023-03-01T00:59:49;13.93;;;5.20;;
4867;SDS011;2448;48.086;10.862;2023-03-01T01:02:17;9.30;;;4.30;;
4867;SDS011;2448;48.086;10.862;2023-03-01T01:04:43;9.33;;;6.00;;
4867;SDS011;2448;48.086;10.862;2023-03-01T01:07:08;5.50;;;4.27;;
4867;SDS011;2448;48.086;10.862;2023-03-01T01:09:34;8.47;;;6.07;;
4867;SDS011;2448;48.086;10.862;2023-03-01T01:11:59;8.53;;;5.77;;
4867;SDS011;2448;48.086;10.862;2023-03-01T01:14:24;7.10;;;6.07;;
4867;SDS011;2448;48.086;10.862;2023-03-01T01:16:50;6.77;;;3.97;;
4867;SDS011;2448;48.086;10.862;2023-03-01T01:19:16;11.87;;;5.10;;
4867;SDS011;2448;48.086;10.862;2023-03-01T01:21:41;7.13;;;4.87;;
4867;SDS011;2448;48.086;10.862;2023-03-01T01:24:11;7.10;;;4.50;;
4867;SDS011;2448;48.086;10.862;2023-03-01T01:26:37;9.23;;;4.93;;
4867;SDS011;2448;48.086;10.862;2023-03-01T01:29:03;5.27;;;4.00;;
4867;SDS011;2448;48.086;10.862;2023-03-01T01:31:28;7.07;;;5.37;;
4867;SDS011;2448;48.086;10.862;2023-03-01T01:33:56;8.20;;;5.33;;
4867;SDS011;2448;48.086;10.862;2023-03-01T01:36:21;8.20;;;5.67;;
4867;SDS011;2448;48.086;10.862;2023-03-01T01:38:47;7.43;;;5.13;;
4867;SDS011;2448;48.086;10.862;2023-03-01T01:41:13;7.53;;;4.43;;
4867;SDS011;2448;48.086;10.862;2023-03-01T01:43:40;8.27;;;5.47;;
4867;SDS011;2448;48.086;10.862;2023-03-01T01:46:12;22.50;;;4.73;;
4867;SDS011;2448;48.086;10.862;2023-03-01T01:48:41;8.97;;;5.07;;
4867;SDS011;2448;48.086;10.862;2023-03-01T01:51:10;7.20;;;5.37;;
4867;SDS011;2448;48.086;10.862;2023-03-01T01:53:36;8.07;;;4.60;;
4867;SDS011;2448;48.086;10.862;2023-03-01T01:56:02;7.40;;;4.40;;
4867;SDS011;2448;48.086;10.862;2023-03-01T01:58:28;6.77;;;5.10;;
4867;SDS011;2448;48.086;10.862;2023-03-01T02:00:54;7.60;;;5.23;;
4867;SDS011;2448;48.086;10.862;2023-03-01T02:03:27;7.97;;;5.00;;
4867;SDS011;2448;48.086;10.862;2023-03-01T02:05:59;9.70;;;6.70;;
4867;SDS011;2448;48.086;10.862;2023-03-01T02:08:27;9.23;;;5.47;;
4867;SDS011;2448;48.086;10.862;2023-03-01T02:10:52;6.10;;;5.50;;
4867;SDS011;2448;48.086;10.862;2023-03-01T02:13:18;10.33;;;6.67;;
4867;SDS011;2448;48.086;10.862;2023-03-01T02:15:43;10.00;;;8.03;;
4867;SDS011;2448;48.086;10.862;2023-03-01T02:18:10;6.70;;;4.87;;
4867;SDS011;2448;48.086;10.862;2023-03-01T02:23:21;7.53;;;5.27;;
4867;SDS011;2448;48.086;10.862;2023-03-01T02:30:47;5.70;;;3.90;;
4867;SDS011;2448;48.086;10.862;2023-03-01T02:33:33;4.77;;;4.37;;
4867;SDS011;2448;48.086;10.862;2023-03-01T02:36:44;7.00;;;4.20;;
4867;SDS011;2448;48.086;10.862;2023-03-01T02:38:50;6.03;;;4.80;;
4867;SDS011;2448;48.086;10.862;2023-03-01T02:41:17;7.30;;;5.43;;
4867;SDS011;2448;48.086;10.862;2023-03-01T02:43:44;5.73;;;4.20;;
4867;SDS011;2448;48.086;10.862;2023-03-01T02:46:14;7.77;;;4.67;;
4867;SDS011;2448;48.086;10.862;2023-03-01T02:48:47;8.90;;;5.90;;
4867;SDS011;2448;48.086;10.862;2023-03-01T02:56:40;7.77;;;4.73;;
4867;SDS011;2448;48.086;10.862;2023-03-01T02:59:06;10.00;;;6.40;;
4867;SDS011;2448;48.086;10.862;2023-03-01T03:01:32;4.90;;;4.47;;
4867;SDS011;2448;48.086;10.862;2023-03-01T03:04:07;3.57;;;3.27;;
4867;SDS011;2448;48.086;10.862;2023-03-01T03:06:33;6.97;;;4.13;;
4867;SDS011;2448;48.086;10.862;2023-03-01T03:08:59;6.30;;;4.73;;
4867;SDS011;2448;48.086;10.862;2023-03-01T03:11:24;11.37;;;3.60;;
4867;SDS011;2448;48.086;10.862;2023-03-01T03:13:50;9.43;;;4.37;;
4867;SDS011;2448;48.086;10.862;2023-03-01T03:16:17;8.23;;;5.43;;
4867;SDS011;2448;48.086;10.862;2023-03-01T03:18:43;5.83;;;4.30;;
4867;SDS011;2448;48.086;10.862;2023-03-01T03:21:10;7.33;;;4.47;;
4867;SDS011;2448;48.086;10.862;2023-03-01T03:23:36;10.70;;;5.30;;
4867;SDS011;2448;48.086;10.862;2023-03-01T03:26:01;7.93;;;5.90;;
4867;SDS011;2448;48.086;10.862;2023-03-01T03:28:29;6.70;;;3.83;;
4867;SDS011;2448;48.086;10.862;2023-03-01T03:30:55;5.67;;;4.97;;
4867;SDS011;2448;48.086;10.862;2023-03-01T03:33:21;9.00;;;4.60;;
4867;SDS011;2448;48.086;10.862;2023-03-01T03:35:47;5.50;;;3.13;;
4867;SDS011;2448;48.086;10.862;2023-03-01T03:38:14;4.87;;;4.13;;
4867;SDS011;2448;48.086;10.862;2023-03-01T03:43:09;5.67;;;4.00;;
4867;SDS011;2448;48.086;10.862;2023-03-01T03:45:35;6.53;;;4.67;;
4867;SDS011;2448;48.086;10.862;2023-03-01T03:48:01;7.83;;;4.70;;
4867;SDS011;2448;48.086;10.862;2023-03-01T03:50:27;5.20;;;4.70;;
4867;SDS011;2448;48.086;10.862;2023-03-01T03:52:52;6.57;;;4.47;;
4867;SDS011;2448;48.086;10.862;2023-03-01T03:55:18;5.73;;;3.80;;
4867;SDS011;2448;48.086;10.862;2023-03-01T03:57:45;8.17;;;5.23;;
4867;SDS011;2448;48.086;10.862;2023-03-01T04:00:14;5.50;;;4.57;;
4867;SDS011;2448;48.086;10.862;2023-03-01T04:02:40;4.77;;;4.33;;
4867;SDS011;2448;48.086;10.862;2023-03-01T04:05:06;4.97;;;4.43;;
4867;SDS011;2448;48.086;10.862;2023-03-01T04:07:33;4.23;;;3.87;;
4867;SDS011;2448;48.086;10.862;2023-03-01T04:09:58;5.67;;;3.63;;
4867;SDS011;2448;48.086;10.862;2023-03-01T04:12:24;11.80;;;5.27;;
4867;SDS011;2448;48.086;10.862;2023-03-01T04:14:49;3.77;;;3.50;;
4867;SDS011;2448;48.086;10.862;2023-03-01T04:17:15;5.87;;;3.27;;
4867;SDS011;2448;48.086;10.862;2023-03-01T04:19:40;9.30;;;5.27;;
4867;SDS011;2448;48.086;10.862;2023-03-01T04:22:09;9.00;;;4.63;;
4867;SDS011;2448;48.086;10.862;2023-03-01T04:24:36;6.73;;;5.20;;
4867;SDS011;2448;48.086;10.862;2023-03-01T04:27:01;9.33;;;4.90;;
4867;SDS011;2448;48.086;10.862;2023-03-01T04:29:27;8.87;;;6.20;;
4867;SDS011;2448;48.086;10.862;2023-03-01T04:31:52;7.33;;;5.13;;
4867;SDS011;2448;48.086;10.862;2023-03-01T04:34:18;5.03;;;4.17;;
4867;SDS011;2448;48.086;10.862;2023-03-01T04:36:43;7.13;;;5.43;;
4867;SDS011;2448;48.086;10.862;2023-03-01T04:39:08;5.47;;;4.90;;
4867;SDS011;2448;48.086;10.862;2023-03-01T04:41:37;15.70;;;6.70;;
4867;SDS011;2448;48.086;10.862;2023-03-01T04:44:04;4.90;;;4.43;;
4867;SDS011;2448;48.086;10.862;2023-03-01T04:46:29;4.50;;;3.57;;
4867;SDS011;2448;48.086;10.862;2023-03-01T04:48:54;8.73;;;4.90;;
4867;SDS011;2448;48.086;10.862;2023-03-01T04:51:20;9.40;;;5.70;;
4867;SDS011;2448;48.086;10.862;2023-03-01T04:53:45;7.83;;;5.17;;
4867;SDS011;2448;48.086;10.862;2023-03-01T04:56:11;8.00;;;5.13;;
4867;SDS011;2448;48.086;10.862;2023-03-01T04:58:38;7.43;;;5.27;;
4867;SDS011;2448;48.086;10.862;2023-03-01T05:01:15;7.47;;;5.43;;
4867;SDS011;2448;48.086;10.862;2023-03-01T05:03:41;14.73;;;5.93;;
4867;SDS011;2448;48.086;10.862;2023-03-01T05:06:07;7.73;;;5.03;;
4867;SDS011;2448;48.086;10.862;2023-03-01T05:08:32;5.30;;;4.80;;
4867;SDS011;2448;48.086;10.862;2023-03-01T05:10:59;7.43;;;5.87;;
4867;SDS011;2448;48.086;10.862;2023-03-01T05:13:24;9.17;;;5.13;;
4867;SDS011;2448;48.086;10.862;2023-03-01T05:15:53;13.80;;;5.07;;
4867;SDS011;2448;48.086;10.862;2023-03-01T05:18:19;19.67;;;6.50;;
4867;SDS011;2448;48.086;10.862;2023-03-01T05:20:44;7.93;;;5.87;;
4867;SDS011;2448;48.086;10.862;2023-03-01T05:23:10;7.23;;;6.30;;
4867;SDS011;2448;48.086;10.862;2023-03-01T05:25:35;5.87;;;4.93;;
4867;SDS011;2448;48.086;10.862;2023-03-01T05:28:06;7.87;;;4.97;;
4867;SDS011;2448;48.086;10.862;2023-03-01T05:30:32;5.73;;;4.87;;
4867;SDS011;2448;48.086;10.862;2023-03-01T05:32:57;10.93;;;5.83;;
4867;SDS011;2448;48.086;10.862;2023-03-01T05:35:23;5.70;;;4.37;;
4867;SDS011;2448;48.086;10.862;2023-03-01T05:37:49;5.70;;;4.70;;
4867;SDS011;2448;48.086;10.862;2023-03-01T05:40:15;7.73;;;4.70;;
4867;SDS011;2448;48.086;10.862;2023-03-01T05:42:48;10.70;;;6.67;;
4867;SDS011;2448;48.086;10.862;2023-03-01T05:45:15;8.20;;;5.43;;
4867;SDS011;2448;48.086;10.862;2023-03-01T05:47:41;4.30;;;3.57;;
4867;SDS011;2448;48.086;10.862;2023-03-01T05:52:35;12.90;;;6.10;;
4867;SDS011;2448;48.086;10.862;2023-03-01T05:55:00;8.27;;;6.00;;
4867;SDS011;2448;48.086;10.862;2023-03-01T05:57:27;7.60;;;4.00;;
4867;SDS011;2448;48.086;10.862;2023-03-01T05:59:52;4.87;;;4.20;;
4867;SDS011;2448;48.086;10.862;2023-03-01T06:02:18;5.23;;;3.80;;
4867;SDS011;2448;48.086;10.862;2023-03-01T06:04:43;5.40;;;4.43;;
4867;SDS011;2448;48.086;10.862;2023-03-01T06:07:09;6.33;;;4.50;;
4867;SDS011;2448;48.086;10.862;2023-03-01T06:09:34;6.30;;;4.50;;
4867;SDS011;2448;48.086;10.862;2023-03-01T06:11:59;7.43;;;5.50;;
4867;SDS011;2448;48.086;10.862;2023-03-01T06:14:25;5.80;;;4.57;;
4867;SDS011;2448;48.086;10.862;2023-03-01T06:16:50;3.37;;;3.10;;
4867;SDS011;2448;48.086;10.862;2023-03-01T06:19:15;10.83;;;4.40;;
4867;SDS011;2448;48.086;10.862;2023-03-01T06:21:41;5.83;;;4.23;;
4867;SDS011;2448;48.086;10.862;2023-03-01T06:24:06;4.23;;;3.50;;
4867;SDS011;2448;48.086;10.862;2023-03-01T06:26:32;6.30;;;5.70;;
4867;SDS011;2448;48.086;10.862;2023-03-01T06:28:57;7.50;;;5.20;;
4867;SDS011;2448;48.086;10.862;2023-03-01T06:31:23;7.87;;;3.93;;
4867;SDS011;2448;48.086;10.862;2023-03-01T06:33:49;11.57;;;6.60;;
4867;SDS011;2448;48.086;10.862;2023-03-01T06:36:14;3.87;;;3.23;;
4867;SDS011;2448;48.086;10.862;2023-03-01T06:38:41;6.93;;;3.43;;
4867;SDS011;2448;48.086;10.862;2023-03-01T06:41:06;4.70;;;4.30;;
4867;SDS011;2448;48.086;10.862;2023-03-01T06:43:32;4.43;;;3.50;;
4867;SDS011;2448;48.086;10.862;2023-03-01T06:45:57;7.63;;;4.90;;
4867;SDS011;2448;48.086;10.862;2023-03-01T06:48:22;5.97;;;3.70;;
4867;SDS011;2448;48.086;10.862;2023-03-01T06:50:48;7.27;;;4.80;;
4867;SDS011;2448;48.086;10.862;2023-03-01T06:53:13;11.50;;;6.57;;
4867;SDS011;2448;48.086;10.862;2023-03-01T06:55:38;5.37;;;4.93;;
4867;SDS011;2448;48.086;10.862;2023-03-01T06:58:04;9.80;;;6.10;;
4867;SDS011;2448;48.086;10.862;2023-03-01T07:00:30;9.37;;;6.07;;
4867;SDS011;2448;48.086;10.862;2023-03-01T07:02:58;6.80;;;5.10;;
4867;SDS011;2448;48.086;10.862;2023-03-01T07:05:23;6.67;;;5.13;;
4867;SDS011;2448;48.086;10.862;2023-03-01T07:07:48;4.87;;;4.20;;
4867;SDS011;2448;48.086;10.862;2023-03-01T07:10:14;6.37;;;4.83;;
4867;SDS011;2448;48.086;10.862;2023-03-01T07:12:39;6.70;;;5.33;;
4867;SDS011;2448;48.086;10.862;2023-03-01T07:15:06;9.63;;;5.90;;
4867;SDS011;2448;48.086;10.862;2023-03-01T07:17:34;6.47;;;4.43;;
4867;SDS011;2448;48.086;10.862;2023-03-01T07:19:59;8.47;;;5.37;;
4867;SDS011;2448;48.086;10.862;2023-03-01T07:22:25;7.97;;;5.20;;
4867;SDS011;2448;48.086;10.862;2023-03-01T07:24:50;8.70;;;4.20;;
4867;SDS011;2448;48.086;10.862;2023-03-01T07:27:15;11.80;;;6.10;;
4867;SDS011;2448;48.086;10.862;2023-03-01T07:29:41;5.27;;;4.50;;
4867;SDS011;2448;48.086;10.862;2023-03-01T07:32:06;12.47;;;5.73;;
4867;SDS011;2448;48.086;10.862;2023-03-01T07:34:32;9.37;;;5.67;;
4867;SDS011;2448;48.086;10.862;2023-03-01T07:36:57;5.60;;;4.63;;
4867;SDS011;2448;48.086;10.862;2023-03-01T07:39:23;10.77;;;5.30;;
4867;SDS011;2448;48.086;10.862;2023-03-01T07:41:48;12.20;;;5.60;;
4867;SDS011;2448;48.086;10.862;2023-03-01T07:44:15;11.73;;;5.70;;
4867;SDS011;2448;48.086;10.862;2023-03-01T07:46:42;18.37;;;5.40;;
4867;SDS011;2448;48.086;10.862;2023-03-01T07:49:08;9.87;;;5.80;;
4867;SDS011;2448;48.086;10.862;2023-03-01T07:51:34;5.67;;;5.07;;
4867;SDS011;2448;48.086;10.862;2023-03-01T07:53:59;7.53;;;6.50;;
4867;SDS011;2448;48.086;10.862;2023-03-01T07:56:24;8.93;;;6.33;;
4867;SDS011;2448;48.086;10.862;2023-03-01T07:58:50;5.30;;;4.90;;
4867;SDS011;2448;48.086;10.862;2023-03-01T08:01:16;7.97;;;4.77;;
4867;SDS011;2448;48.086;10.862;2023-03-01T08:03:42;11.70;;;6.00;;
4867;SDS011;2448;48.086;10.862;2023-03-01T08:06:09;8.13;;;5.47;;
4867;SDS011;2448;48.086;10.862;2023-03-01T08:08:35;12.73;;;6.50;;
4867;SDS011;2448;48.086;10.862;2023-03-01T08:11:01;9.43;;;5.87;;
4867;SDS011;2448;48.086;10.862;2023-03-01T08:13:27;6.80;;;5.10;;
4867;SDS011;2448;48.086;10.862;2023-03-01T08:15:52;6.20;;;4.90;;
4867;SDS011;2448;48.086;10.862;2023-03-01T08:18:18;13.77;;;6.53;;
4867;SDS011;2448;48.086;10.862;2023-03-01T08:20:44;11.93;;;6.73;;
4867;SDS011;2448;48.086;10.862;2023-03-01T08:23:09;11.47;;;5.87;;
4867;SDS011;2448;48.086;10.862;2023-03-01T08:25:35;8.70;;;5.60;;
4867;SDS011;2448;48.086;10.862;2023-03-01T08:28:00;8.13;;;5.50;;
4867;SDS011;2448;48.086;10.862;2023-03-01T08:30:26;8.33;;;5.33;;
4867;SDS011;2448;48.086;10.862;2023-03-01T08:32:51;8.10;;;5.20;;
4867;SDS011;2448;48.086;10.862;2023-03-01T08:35:17;12.47;;;7.03;;
4867;SDS011;2448;48.086;10.862;2023-03-01T08:37:42;39.20;;;5.90;;
4867;SDS011;2448;48.086;10.862;2023-03-01T08:40:08;10.57;;;5.40;;
4867;SDS011;2448;48.086;10.862;2023-03-01T08:42:35;9.93;;;6.27;;
4867;SDS011;2448;48.086;10.862;2023-03-01T08:45:01;13.13;;;6.63;;
4867;SDS011;2448;48.086;10.862;2023-03-01T08:47:26;10.13;;;5.10;;
4867;SDS011;2448;48.086;10.862;2023-03-01T08:49:51;16.07;;;7.67;;
4867;SDS011;2448;48.086;10.862;2023-03-01T08:52:18;9.07;;;6.23;;
4867;SDS011;2448;48.086;10.862;2023-03-01T08:54:43;12.10;;;7.23;;
4867;SDS011;2448;48.086;10.862;2023-03-01T08:57:09;7.17;;;4.93;;
4867;SDS011;2448;48.086;10.862;2023-03-01T08:59:34;13.83;;;7.13;;
4867;SDS011;2448;48.086;10.862;2023-03-01T09:02:03;13.20;;;6.87;;
4867;SDS011;2448;48.086;10.862;2023-03-01T09:04:28;6.73;;;5.70;;
4867;SDS011;2448;48.086;10.862;2023-03-01T09:06:54;11.03;;;6.20;;
4867;SDS011;2448;48.086;10.862;2023-03-01T09:09:19;12.07;;;7.40;;
4867;SDS011;2448;48.086;10.862;2023-03-01T09:11:45;10.97;;;6.20;;
4867;SDS011;2448;48.086;10.862;2023-03-01T09:14:15;10.57;;;7.33;;
4867;SDS011;2448;48.086;10.862;2023-03-01T09:16:40;12.43;;;6.57;;
4867;SDS011;2448;48.086;10.862;2023-03-01T09:19:05;11.93;;;7.30;;
4867;SDS011;2448;48.086;10.862;2023-03-01T09:21:31;10.83;;;7.00;;
4867;SDS011;2448;48.086;10.862;2023-03-01T09:23:57;11.67;;;7.50;;
4867;SDS011;2448;48.086;10.862;2023-03-01T09:26:22;11.50;;;6.40;;
4867;SDS011;2448;48.086;10.862;2023-03-01T09:28:48;11.20;;;6.23;;
4867;SDS011;2448;48.086;10.862;2023-03-01T09:31:14;12.33;;;6.83;;
4867;SDS011;2448;48.086;10.862;2023-03-01T09:33:40;11.03;;;6.77;;
4867;SDS011;2448;48.086;10.862;2023-03-01T09:36:07;9.80;;;5.90;;
4867;SDS011;2448;48.086;10.862;2023-03-01T09:38:33;18.43;;;6.50;;
4867;SDS011;2448;48.086;10.862;2023-03-01T09:40:59;15.47;;;7.80;;
4867;SDS011;2448;48.086;10.862;2023-03-01T09:43:30;14.23;;;7.10;;
4867;SDS011;2448;48.086;10.862;2023-03-01T09:45:59;11.33;;;6.50;;
4867;SDS011;2448;48.086;10.862;2023-03-01T09:48:26;14.27;;;7.90;;
4867;SDS011;2448;48.086;10.862;2023-03-01T09:50:52;14.20;;;8.23;;
4867;SDS011;2448;48.086;10.862;2023-03-01T09:53:22;11.80;;;8.10;;
4867;SDS011;2448;48.086;10.862;2023-03-01T09:56:02;17.50;;;7.30;;
4867;SDS011;2448;48.086;10.862;2023-03-01T10:06:44;11.97;;;6.67;;
4867;SDS011;2448;48.086;10.862;2023-03-01T10:09:12;8.97;;;6.00;;
4867;SDS011;2448;48.086;10.862;2023-03-01T10:11:40;6.07;;;4.50;;
4867;SDS011;2448;48.086;10.862;2023-03-01T10:14:12;12.80;;;7.30;;
4867;SDS011;2448;48.086;10.862;2023-03-01T10:16:43;15.90;;;7.67;;
4867;SDS011;2448;48.086;10.862;2023-03-01T10:19:14;13.03;;;7.60;;
4867;SDS011;2448;48.086;10.862;2023-03-01T10:21:43;12.00;;;6.83;;
4867;SDS011;2448;48.086;10.862;2023-03-01T10:24:16;14.80;;;7.17;;
4867;SDS011;2448;48.086;10.862;2023-03-01T10:26:48;13.00;;;6.80;;
4867;SDS011;2448;48.086;10.862;2023-03-01T10:29:15;14.13;;;7.43;;
4867;SDS011;2448;48.086;10.862;2023-03-01T10:34:13;10.87;;;6.10;;
4867;SDS011;2448;48.086;10.862;2023-03-01T10:36:39;12.20;;;8.30;;
4867;SDS011;2448;48.086;10.862;2023-03-01T10:39:11;14.87;;;7.97;;
4867;SDS011;2448;48.086;10.862;2023-03-01T10:41:37;15.13;;;7.07;;
4867;SDS011;2448;48.086;10.862;2023-03-01T10:44:09;12.90;;;6.87;;
4867;SDS011;2448;48.086;10.862;2023-03-01T10:47:01;14.23;;;7.03;;
4867;SDS011;2448;48.086;10.862;2023-03-01T10:49:27;6.87;;;5.20;;
4867;SDS011;2448;48.086;10.862;2023-03-01T10:51:53;16.10;;;8.53;;
4867;SDS011;2448;48.086;10.862;2023-03-01T10:54:20;21.70;;;7.77;;
4867;SDS011;2448;48.086;10.862;2023-03-01T10:56:55;19.47;;;9.00;;
4867;SDS011;2448;48.086;10.862;2023-03-01T10:59:28;12.63;;;8.80;;
4867;SDS011;2448;48.086;10.862;2023-03-01T11:04:28;16.47;;;7.97;;
4867;SDS011;2448;48.086;10.862;2023-03-01T11:06:57;15.37;;;8.93;;
4867;SDS011;2448;48.086;10.862;2023-03-01T11:09:23;18.63;;;7.63;;
4867;SDS011;2448;48.086;10.862;2023-03-01T11:11:55;17.77;;;8.17;;
4867;SDS011;2448;48.086;10.862;2023-03-01T11:14:22;13.33;;;7.60;;
4867;SDS011;2448;48.086;10.862;2023-03-01T11:16:48;14.13;;;7.73;;
4867;SDS011;2448;48.086;10.862;2023-03-01T11:19:19;15.50;;;7.80;;
4867;SDS011;2448;48.086;10.862;2023-03-01T11:24:16;15.83;;;7.70;;
4867;SDS011;2448;48.086;10.862;2023-03-01T11:26:44;14.37;;;7.30;;
4867;SDS011;2448;48.086;10.862;2023-03-01T11:29:44;15.40;;;8.13;;
4867;SDS011;2448;48.086;10.862;2023-03-01T11:32:05;19.53;;;8.43;;
4867;SDS011;2448;48.086;10.862;2023-03-01T11:34:35;17.20;;;8.83;;
4867;SDS011;2448;48.086;10.862;2023-03-01T11:37:01;12.60;;;8.00;;
4867;SDS011;2448;48.086;10.862;2023-03-01T11:41:59;14.00;;;8.83;;
4867;SDS011;2448;48.086;10.862;2023-03-01T11:44:27;19.70;;;9.60;;
4867;SDS011;2448;48.086;10.862;2023-03-01T11:52:28;21.50;;;9.53;;
4867;SDS011;2448;48.086;10.862;2023-03-01T12:05:36;16.87;;;9.03;;
4867;SDS011;2448;48.086;10.862;2023-03-01T12:13:16;12.10;;;7.80;;
4867;SDS011;2448;48.086;10.862;2023-03-01T12:20:38;15.50;;;8.17;;
4867;SDS011;2448;48.086;10.862;2023-03-01T12:46:06;15.10;;;7.27;;
4867;SDS011;2448;48.086;10.862;2023-03-01T12:51:05;38.47;;;8.40;;
4867;SDS011;2448;48.086;10.862;2023-03-01T12:53:34;21.90;;;7.40;;
4867;SDS011;2448;48.086;10.862;2023-03-01T12:56:01;16.07;;;8.90;;
4867;SDS011;2448;48.086;10.862;2023-03-01T12:58:32;17.20;;;9.87;;
4867;SDS011;2448;48.086;10.862;2023-03-01T13:03:31;11.73;;;7.23;;
4867;SDS011;2448;48.086;10.862;2023-03-01T13:11:02;18.70;;;8.10;;
4867;SDS011;2448;48.086;10.862;2023-03-01T13:13:28;13.50;;;8.00;;
4867;SDS011;2448;48.086;10.862;2023-03-01T13:15:54;17.00;;;8.77;;
4867;SDS011;2448;48.086;10.862;2023-03-01T13:20:48;16.73;;;8.23;;
4867;SDS011;2448;48.086;10.862;2023-03-01T13:31:09;15.20;;;8.00;;
4867;SDS011;2448;48.086;10.862;2023-03-01T13:33:44;17.80;;;9.70;;
4867;SDS011;2448;48.086;10.862;2023-03-01T13:36:10;19.03;;;9.30;;
4867;SDS011;2448;48.086;10.862;2023-03-01T13:41:11;16.30;;;10.63;;
4867;SDS011;2448;48.086;10.862;2023-03-01T13:43:37;13.83;;;8.00;;
4867;SDS011;2448;48.086;10.862;2023-03-01T13:46:07;22.43;;;10.03;;
4867;SDS011;2448;48.086;10.862;2023-03-01T13:48:34;18.33;;;9.77;;
4867;SDS011;2448;48.086;10.862;2023-03-01T13:51:00;16.57;;;9.10;;
4867;SDS011;2448;48.086;10.862;2023-03-01T13:53:29;20.37;;;10.40;;
4867;SDS011;2448;48.086;10.862;2023-03-01T13:55:56;21.40;;;10.00;;
4867;SDS011;2448;48.086;10.862;2023-03-01T14:00:54;22.63;;;10.10;;
4867;SDS011;2448;48.086;10.862;2023-03-01T14:03:20;14.37;;;9.00;;
4867;SDS011;2448;48.086;10.862;2023-03-01T14:08:43;13.87;;;8.20;;
4867;SDS011;2448;48.086;10.862;2023-03-01T14:13:48;14.90;;;8.17;;
4867;SDS011;2448;48.086;10.862;2023-03-01T14:18:54;14.20;;;8.43;;
4867;SDS011;2448;48.086;10.862;2023-03-01T14:21:24;18.23;;;10.10;;
4867;SDS011;2448;48.086;10.862;2023-03-01T14:23:51;17.00;;;9.37;;
4867;SDS011;2448;48.086;10.862;2023-03-01T14:26:20;16.43;;;8.83;;
4867;SDS011;2448;48.086;10.862;2023-03-01T14:28:46;19.20;;;9.80;;
4867;SDS011;2448;48.086;10.862;2023-03-01T14:33:56;18.50;;;8.97;;
4867;SDS011;2448;48.086;10.862;2023-03-01T14:36:26;21.80;;;10.13;;
4867;SDS011;2448;48.086;10.862;2023-03-01T14:38:52;16.23;;;9.30;;
4867;SDS011;2448;48.086;10.862;2023-03-01T14:41:18;16.87;;;8.60;;
4867;SDS011;2448;48.086;10.862;2023-03-01T14:46:20;17.47;;;9.57;;
4867;SDS011;2448;48.086;10.862;2023-03-01T14:48:48;15.17;;;9.17;;
4867;SDS011;2448;48.086;10.862;2023-03-01T14:51:14;16.40;;;9.07;;
4867;SDS011;2448;48.086;10.862;2023-03-01T14:53:39;17.67;;;8.70;;
4867;SDS011;2448;48.086;10.862;2023-03-01T14:56:12;10.40;;;7.10;;
4867;SDS011;2448;48.086;10.862;2023-03-01T14:58:38;17.60;;;7.57;;
4867;SDS011;2448;48.086;10.862;2023-03-01T15:01:04;20.33;;;9.90;;
4867;SDS011;2448;48.086;10.862;2023-03-01T15:03:33;24.67;;;9.43;;
4867;SDS011;2448;48.086;10.862;2023-03-01T15:06:00;18.17;;;8.60;;
4867;SDS011;2448;48.086;10.862;2023-03-01T15:08:26;16.03;;;8.10;;
4867;SDS011;2448;48.086;10.862;2023-03-01T15:13:24;19.67;;;9.77;;
4867;SDS011;2448;48.086;10.862;2023-03-01T15:15:50;14.57;;;7.90;;
4867;SDS011;2448;48.086;10.862;2023-03-01T15:18:22;17.10;;;8.43;;
4867;SDS011;2448;48.086;10.862;2023-03-01T15:20:50;25.07;;;9.33;;
4867;SDS011;2448;48.086;10.862;2023-03-01T15:23:21;18.40;;;9.93;;
4867;SDS011;2448;48.086;10.862;2023-03-01T15:25:47;15.90;;;9.30;;
4867;SDS011;2448;48.086;10.862;2023-03-01T15:28:21;18.23;;;9.87;;
4867;SDS011;2448;48.086;10.862;2023-03-01T15:30:52;18.27;;;8.87;;
4867;SDS011;2448;48.086;10.862;2023-03-01T15:33:36;13.03;;;7.23;;
4867;SDS011;2448;48.086;10.862;2023-03-01T15:38:53;11.97;;;6.90;;
4867;SDS011;2448;48.086;10.862;2023-03-01T15:41:24;18.67;;;8.87;;
4867;SDS011;2448;48.086;10.862;2023-03-01T15:43:50;19.10;;;9.73;;
4867;SDS011;2448;48.086;10.862;2023-03-01T15:46:28;13.60;;;7.70;;
4867;SDS011;2448;48.086;10.862;2023-03-01T15:48:56;13.93;;;8.70;;
4867;SDS011;2448;48.086;10.862;2023-03-01T15:51:27;14.40;;;8.70;;
4867;SDS011;2448;48.086;10.862;2023-03-01T15:53:53;15.27;;;8.10;;
4867;SDS011;2448;48.086;10.862;2023-03-01T15:56:19;12.30;;;7.40;;
4867;SDS011;2448;48.086;10.862;2023-03-01T15:58:44;12.30;;;6.70;;
4867;SDS011;2448;48.086;10.862;2023-03-01T16:01:11;15.33;;;7.83;;
4867;SDS011;2448;48.086;10.862;2023-03-01T16:03:37;20.23;;;9.10;;
4867;SDS011;2448;48.086;10.862;2023-03-01T16:06:03;21.90;;;6.70;;
4867;SDS011;2448;48.086;10.862;2023-03-01T16:08:28;12.00;;;7.73;;
4867;SDS011;2448;48.086;10.862;2023-03-01T16:10:54;10.87;;;7.27;;
4867;SDS011;2448;48.086;10.862;2023-03-01T16:13:19;17.10;;;8.90;;
4867;SDS011;2448;48.086;10.862;2023-03-01T16:15:45;11.50;;;6.67;;
4867;SDS011;2448;48.086;10.862;2023-03-01T16:18:10;11.67;;;7.20;;
4867;SDS011;2448;48.086;10.862;2023-03-01T16:20:36;9.13;;;6.63;;
4867;SDS011;2448;48.086;10.862;2023-03-01T16:23:04;16.20;;;8.40;;
4867;SDS011;2448;48.086;10.862;2023-03-01T16:25:30;13.40;;;7.97;;
4867;SDS011;2448;48.086;10.862;2023-03-01T16:27:55;15.97;;;9.37;;
4867;SDS011;2448;48.086;10.862;2023-03-01T16:30:23;14.57;;;8.90;;
4867;SDS011;2448;48.086;10.862;2023-03-01T16:32:49;16.37;;;8.43;;
4867;SDS011;2448;48.086;10.862;2023-03-01T16:35:15;12.67;;;7.87;;
4867;SDS011;2448;48.086;10.862;2023-03-01T16:37:41;20.40;;;8.43;;
4867;SDS011;2448;48.086;10.862;2023-03-01T16:40:11;15.17;;;7.13;;
4867;SDS011;2448;48.086;10.862;2023-03-01T16:42:40;13.83;;;7.47;;
4867;SDS011;2448;48.086;10.862;2023-03-01T16:45:06;12.77;;;8.07;;
4867;SDS011;2448;48.086;10.862;2023-03-01T16:47:32;11.33;;;6.23;;
4867;SDS011;2448;48.086;10.862;2023-03-01T16:49:58;13.43;;;7.17;;
4867;SDS011;2448;48.086;10.862;2023-03-01T16:52:23;10.27;;;6.87;;
4867;SDS011;2448;48.086;10.862;2023-03-01T16:54:48;13.50;;;7.80;;
4867;SDS011;2448;48.086;10.862;2023-03-01T16:57:14;18.93;;;8.57;;
4867;SDS011;2448;48.086;10.862;2023-03-01T16:59:39;12.80;;;6.90;;
4867;SDS011;2448;48.086;10.862;2023-03-01T17:02:06;17.30;;;7.30;;
4867;SDS011;2448;48.086;10.862;2023-03-01T17:04:31;14.53;;;7.07;;